Time;durP1;ratioP1;P1;durP2;ratioP2;P2;SDS_P1;SDS_P2;PMS_P1;PMS_P2;Temp;Humidity;BMP_temperature;BMP_pressure;BME280_temperature;BME280_humidity;BME280_pressure;Samples;Min_cycle;Max_cycle;Signal;HPM_P1;HPM_P2
2020/12/29 00:01:49;;;;;;;3.70;2.55;;;17.80;31.30;;;;;;8343797;28;20034;-46
2020/12/29 00:05:50;;;;;;;3.08;2.40;;;17.70;31.20;;;;;;8329142;28;20478;-46
2020/12/29 00:09:50;;;;;;;4.30;2.47;;;17.70;31.20;;;;;;8342645;28;20165;-47
2020/12/29 00:13:52;;;;;;;2.83;2.40;;;17.70;31.20;;;;;;8361246;28;20263;-46
2020/12/29 00:17:52;;;;;;;3.30;2.50;;;17.70;31.30;;;;;;8359574;28;20142;-47
2020/12/29 00:21:54;;;;;;;3.30;2.20;;;17.70;31.20;;;;;;8365769;28;20029;-46
2020/12/29 00:25:55;;;;;;;3.63;2.40;;;17.70;31.80;;;;;;8361203;28;20108;-47
2020/12/29 00:29:56;;;;;;;2.15;1.92;;;17.70;31.20;;;;;;8327748;28;20080;-46
2020/12/29 00:33:58;;;;;;;3.13;2.33;;;17.70;31.30;;;;;;8327649;28;20486;-46
2020/12/29 00:37:58;;;;;;;2.13;1.92;;;17.60;31.20;;;;;;8355553;28;20105;-46
2020/12/29 00:41:59;;;;;;;2.63;1.90;;;17.60;31.30;;;;;;8326665;28;20033;-46
2020/12/29 00:46:06;;;;;;;2.37;2.10;;;17.60;31.30;;;;;;8342812;28;20037;-46
2020/12/29 00:50:06;;;;;;;2.63;2.20;;;17.60;31.30;;;;;;8360173;28;20059;-47
2020/12/29 00:54:07;;;;;;;2.37;1.97;;;17.60;31.30;;;;;;8350155;28;20034;-46
2020/12/29 00:58:07;;;;;;;2.33;1.83;;;17.60;31.90;;;;;;8331461;28;20037;-47
2020/12/29 01:02:08;;;;;;;2.00;1.80;;;17.60;31.30;;;;;;8325275;28;20064;-46
2020/12/29 01:06:09;;;;;;;2.60;2.20;;;17.60;31.40;;;;;;8350998;28;20034;-47
2020/12/29 01:10:09;;;;;;;1.75;1.63;;;17.60;31.40;;;;;;8326501;28;20405;-47
2020/12/29 01:14:10;;;;;;;2.43;2.00;;;17.60;31.40;;;;;;8354454;28;20029;-46
2020/12/29 01:18:11;;;;;;;2.13;1.92;;;17.50;31.40;;;;;;8359512;28;20117;-47
2020/12/29 01:22:13;;;;;;;2.83;1.77;;;17.50;31.40;;;;;;8342229;28;20109;-48
2020/12/29 01:26:20;;;;;;;;;;;17.50;31.40;;;;;;8350274;28;20048;-47
2020/12/29 01:30:20;;;;;;;2.13;1.90;;;17.50;31.40;;;;;;8358748;28;20381;-47
2020/12/29 01:34:21;;;;;;;2.40;2.00;;;17.50;31.40;;;;;;8363145;28;20099;-47
2020/12/29 01:38:21;;;;;;;3.17;1.73;;;17.50;31.50;;;;;;8357292;28;20394;-47
2020/12/29 01:42:22;;;;;;;2.03;1.73;;;17.50;31.40;;;;;;8358710;28;20486;-48
2020/12/29 01:46:23;;;;;;;2.38;1.83;;;17.50;31.50;;;;;;8358641;28;20017;-49
2020/12/29 01:50:24;;;;;;;2.00;1.60;;;17.50;31.50;;;;;;8361165;28;20082;-48
2020/12/29 01:54:25;;;;;;;2.30;1.70;;;17.40;31.40;;;;;;8347794;28;20129;-48
2020/12/29 01:58:26;;;;;;;2.23;1.50;;;17.50;31.50;;;;;;8325430;28;20030;-50
2020/12/29 02:02:29;;;;;;;1.53;1.30;;;17.40;31.50;;;;;;8324197;28;23803;-48
2020/12/29 02:06:30;;;;;;;1.63;1.40;;;17.40;31.50;;;;;;8329712;28;20056;-48
2020/12/29 02:10:31;;;;;;;1.55;1.30;;;17.40;31.50;;;;;;8324902;28;20053;-49
2020/12/29 02:14:31;;;;;;;2.50;1.30;;;17.40;31.50;;;;;;8347775;28;20036;-48
2020/12/29 02:18:33;;;;;;;1.80;1.50;;;17.40;31.50;;;;;;8336875;28;20037;-48
2020/12/29 02:22:33;;;;;;;1.85;1.35;;;17.40;31.50;;;;;;8357292;28;20033;-48
2020/12/29 02:26:35;;;;;;;1.77;1.30;;;17.40;31.50;;;;;;8332142;28;20061;-48
2020/12/29 02:30:35;;;;;;;1.80;1.50;;;17.40;31.50;;;;;;8324686;28;20391;-47
2020/12/29 02:34:39;;;;;;;1.83;1.43;;;17.40;31.50;;;;;;8324666;28;20037;-48
2020/12/29 02:38:39;;;;;;;2.35;1.42;;;17.40;31.60;;;;;;8352409;28;20120;-48
2020/12/29 02:42:40;;;;;;;2.40;1.50;;;17.30;32.10;;;;;;8362246;28;20432;-49
2020/12/29 02:46:41;;;;;;;1.70;1.40;;;17.40;31.50;;;;;;8357465;28;20040;-49
2020/12/29 02:50:42;;;;;;;;;;;17.30;31.50;;;;;;8326434;28;20034;-47
2020/12/29 02:54:42;;;;;;;1.85;1.38;;;17.30;31.50;;;;;;8337451;28;20365;-48
2020/12/29 02:58:43;;;;;;;1.50;1.40;;;17.30;31.50;;;;;;8337034;28;20034;-48
2020/12/29 03:02:43;;;;;;;2.07;1.27;;;17.30;31.50;;;;;;8325766;28;20037;-47
2020/12/29 03:06:44;;;;;;;1.37;1.10;;;17.30;31.50;;;;;;8337404;28;20123;-48
2020/12/29 03:10:45;;;;;;;1.50;1.20;;;17.30;31.50;;;;;;8357313;28;20080;-48
2020/12/29 03:14:45;;;;;;;1.70;1.23;;;17.30;31.50;;;;;;8330737;28;20525;-46
2020/12/29 03:18:46;;;;;;;1.17;1.07;;;17.30;31.50;;;;;;8347944;28;20056;-48
2020/12/29 03:22:46;;;;;;;1.30;1.20;;;17.30;31.50;;;;;;8345608;28;20075;-48
2020/12/29 03:26:47;;;;;;;1.80;1.17;;;17.30;31.50;;;;;;8325016;28;20117;-48
2020/12/29 03:30:48;;;;;;;3.07;1.60;;;17.20;31.40;;;;;;8337729;28;20060;-48
2020/12/29 03:34:48;;;;;;;2.38;1.63;;;17.20;31.40;;;;;;8363276;28;20436;-49
2020/12/29 03:38:49;;;;;;;1.20;1.10;;;17.20;31.40;;;;;;8330291;28;20087;-48
2020/12/29 03:42:49;;;;;;;1.93;1.27;;;17.20;31.40;;;;;;8329401;28;20033;-47
2020/12/29 03:46:50;;;;;;;1.90;1.10;;;17.20;31.40;;;;;;8329113;28;20072;-49
2020/12/29 03:50:51;;;;;;;1.17;1.07;;;17.20;31.40;;;;;;8352258;28;20376;-47
2020/12/29 03:54:51;;;;;;;1.30;1.10;;;17.20;31.40;;;;;;8333389;28;20498;-48
2020/12/29 03:58:52;;;;;;;1.20;1.10;;;17.20;31.50;;;;;;8351341;28;20318;-47
2020/12/29 04:02:52;;;;;;;1.60;1.07;;;17.20;31.50;;;;;;8359807;28;20133;-48
2020/12/29 04:06:53;;;;;;;1.53;1.00;;;17.20;31.50;;;;;;8361553;28;20025;-48
2020/12/29 04:10:53;;;;;;;1.47;1.10;;;17.20;31.40;;;;;;8366032;28;20379;-48
2020/12/29 04:14:54;;;;;;;1.13;1.03;;;17.20;31.50;;;;;;8328755;28;20092;-49
2020/12/29 04:18:54;;;;;;;1.17;0.90;;;17.20;31.50;;;;;;8328417;28;20037;-48
2020/12/29 04:22:55;;;;;;;1.40;1.20;;;17.20;31.50;;;;;;8328190;28;20379;-48
2020/12/29 04:26:56;;;;;;;1.53;1.03;;;17.20;31.50;;;;;;8355727;28;20072;-48
2020/12/29 04:30:56;;;;;;;1.52;1.00;;;17.20;31.40;;;;;;8328497;28;20123;-48
2020/12/29 04:34:57;;;;;;;2.17;0.93;;;17.30;31.40;;;;;;8327789;28;20034;-47
2020/12/29 04:38:58;;;;;;;1.43;1.10;;;17.30;31.40;;;;;;8326130;28;20052;-48
2020/12/29 04:42:59;;;;;;;1.63;1.40;;;17.40;31.40;;;;;;8327336;28;20079;-48
2020/12/29 04:47:00;;;;;;;1.30;0.97;;;17.40;31.30;;;;;;8331586;28;20065;-48
2020/12/29 04:51:07;;;;;;;1.88;1.00;;;17.50;31.40;;;;;;8325407;28;20045;-48
2020/12/29 04:55:09;;;;;;;1.50;0.90;;;17.50;31.30;;;;;;8327290;28;20034;-47
2020/12/29 04:59:09;;;;;;;0.80;0.80;;;17.50;31.30;;;;;;8325470;28;20124;-49
2020/12/29 05:03:10;;;;;;;1.30;0.90;;;17.60;31.30;;;;;;8331531;28;20041;-48
2020/12/29 05:07:10;;;;;;;2.03;1.17;;;17.60;31.20;;;;;;8326148;28;20034;-48
2020/12/29 05:11:11;;;;;;;2.03;1.00;;;17.60;31.20;;;;;;8349989;28;20045;-48
2020/12/29 05:15:11;;;;;;;1.70;1.03;;;17.60;31.20;;;;;;8350787;28;20406;-48
2020/12/29 05:19:14;;;;;;;1.40;1.10;;;17.70;31.20;;;;;;8326446;28;20091;-48
2020/12/29 05:23:15;;;;;;;2.67;1.30;;;17.70;31.20;;;;;;8330100;28;20086;-49
2020/12/29 05:27:16;;;;;;;1.23;1.00;;;17.70;31.20;;;;;;8358897;28;20037;-47
2020/12/29 05:31:17;;;;;;;1.00;0.90;;;17.70;31.20;;;;;;8358905;28;20048;-48
2020/12/29 05:35:17;;;;;;;1.88;1.10;;;17.80;31.80;;;;;;8331302;28;20478;-47
2020/12/29 05:39:19;;;;;;;2.33;0.90;;;17.80;31.30;;;;;;8330280;28;20029;-48
2020/12/29 05:43:31;;;;;;;0.77;0.70;;;17.80;31.20;;;;;;8325872;28;20033;-48
2020/12/29 05:47:32;;;;;;;0.90;0.70;;;17.80;31.20;;;;;;8323623;28;20044;-48
2020/12/29 05:51:34;;;;;;;1.00;0.90;;;17.90;31.20;;;;;;8325998;28;20026;-47
2020/12/29 05:55:35;;;;;;;1.38;1.00;;;17.90;31.10;;;;;;8325301;28;20026;-51
2020/12/29 05:59:36;;;;;;;2.47;1.00;;;17.90;31.10;;;;;;8327402;28;20033;-48
2020/12/29 06:03:37;;;;;;;1.13;0.90;;;17.90;31.10;;;;;;8325044;28;20041;-48
2020/12/29 06:07:39;;;;;;;0.88;0.88;;;18.00;31.10;;;;;;8325213;28;20034;-47
2020/12/29 06:11:51;;;;;;;;;;;17.90;31.10;;;;;;8353018;28;20037;-48
2020/12/29 06:15:59;;;;;;;0.70;0.70;;;17.90;31.00;;;;;;8362363;28;19992;-48
2020/12/29 06:20:04;;;;;;;1.50;1.05;;;17.90;31.10;;;;;;8333640;28;20037;-49
2020/12/29 06:24:05;;;;;;;1.15;0.70;;;18.00;31.10;;;;;;8356138;28;20398;-47
2020/12/29 06:28:06;;;;;;;1.03;0.80;;;18.00;31.00;;;;;;8341669;28;20065;-48
2020/12/29 06:32:19;;;;;;;1.47;1.10;;;18.00;31.00;;;;;;8324658;28;20036;-47
2020/12/29 06:36:20;;;;;;;1.40;0.80;;;18.00;31.00;;;;;;8327815;28;20079;-48
2020/12/29 06:40:21;;;;;;;1.70;1.30;;;18.00;31.00;;;;;;8324603;28;20443;-48
2020/12/29 06:44:22;;;;;;;3.03;1.30;;;18.10;31.00;;;;;;8322578;28;20036;-47
2020/12/29 06:48:23;;;;;;;1.63;1.03;;;18.10;31.00;;;;;;8303705;28;20043;-48
2020/12/29 06:52:23;;;;;;;0.80;0.80;;;18.10;30.90;;;;;;8329027;28;20038;-48
2020/12/29 06:56:24;;;;;;;1.53;1.17;;;18.10;30.90;;;;;;8322785;28;20490;-48
2020/12/29 07:00:25;;;;;;;1.07;0.97;;;18.10;30.90;;;;;;8324296;28;20490;-48
2020/12/29 07:04:25;;;;;;;1.60;0.90;;;18.10;30.90;;;;;;8324285;28;20133;-49
2020/12/29 07:08:35;;;;;;;1.00;0.90;;;18.10;30.90;;;;;;8324142;28;20042;-47
2020/12/29 07:12:41;;;;;;;0.70;0.70;;;18.10;30.90;;;;;;8335079;28;20067;-48
2020/12/29 07:16:51;;;;;;;1.63;1.10;;;18.10;30.90;;;;;;8330552;28;20045;-48
2020/12/29 07:20:53;;;;;;;1.13;0.90;;;18.10;30.90;;;;;;8328679;28;20045;-48
2020/12/29 07:24:55;;;;;;;1.40;0.93;;;18.10;30.90;;;;;;8329656;28;20482;-48
2020/12/29 07:28:56;;;;;;;2.22;1.05;;;18.10;30.90;;;;;;8334271;28;20061;-52
2020/12/29 07:33:02;;;;;;;1.20;1.00;;;18.20;30.90;;;;;;8328388;28;20392;-53
2020/12/29 07:37:03;;;;;;;0.95;0.82;;;18.20;30.90;;;;;;8329523;28;20482;-51
2020/12/29 07:41:04;;;;;;;1.88;0.93;;;18.20;30.90;;;;;;8329879;28;20037;-48
2020/12/29 07:45:04;;;;;;;1.10;0.90;;;18.20;30.90;;;;;;8327710;28;20033;-48
2020/12/29 07:49:05;;;;;;;1.37;0.93;;;18.20;30.90;;;;;;8333830;28;20091;-47
2020/12/29 07:53:08;;;;;;;2.30;1.00;;;18.20;30.80;;;;;;8329276;28;20482;-47
2020/12/29 07:57:10;;;;;;;1.27;0.90;;;18.20;30.80;;;;;;8328040;28;20048;-48
2020/12/29 08:01:12;;;;;;;0.85;0.80;;;18.20;30.80;;;;;;8329079;28;20044;-48
2020/12/29 08:05:12;;;;;;;;;;;18.20;30.80;;;;;;8336726;28;20048;-53
2020/12/29 08:09:12;;;;;;;2.38;0.93;;;18.20;30.90;;;;;;8338912;28;19921;-46
2020/12/29 08:13:19;;;;;;;1.57;0.83;;;18.20;31.30;;;;;;8323791;28;20041;-48
2020/12/29 08:17:20;;;;;;;2.13;1.10;;;18.20;31.70;;;;;;8360245;28;20048;-47
2020/12/29 08:21:20;;;;;;;0.97;0.80;;;18.30;32.10;;;;;;8321626;28;20041;-50
2020/12/29 08:25:21;;;;;;;2.27;0.97;;;18.30;32.20;;;;;;8326765;28;20084;-49
2020/12/29 08:29:22;;;;;;;4.60;0.90;;;18.40;32.10;;;;;;8346297;28;20498;-50
2020/12/29 08:33:24;;;;;;;1.33;1.00;;;18.40;32.00;;;;;;8331551;28;20044;-49
2020/12/29 08:37:30;;;;;;;1.70;0.98;;;18.50;32.00;;;;;;8346919;28;20047;-55
2020/12/29 08:41:38;;;;;;;1.77;0.90;;;18.50;32.10;;;;;;8335596;28;20095;-52
2020/12/29 08:45:38;;;;;;;2.00;0.95;;;18.60;32.00;;;;;;8334096;28;20072;-52
2020/12/29 08:49:39;;;;;;;3.70;1.17;;;18.60;32.10;;;;;;8333284;28;20104;-52
2020/12/29 08:53:40;;;;;;;2.60;1.50;;;18.70;32.20;;;;;;8314189;28;20444;-52
2020/12/29 08:57:41;;;;;;;1.87;1.03;;;18.70;32.10;;;;;;8327949;28;20048;-52
2020/12/29 09:01:44;;;;;;;3.88;0.98;;;18.80;32.20;;;;;;8325745;28;20501;-51
2020/12/29 09:05:44;;;;;;;2.97;1.00;;;18.80;32.10;;;;;;8323608;28;20048;-52
2020/12/29 09:09:51;;;;;;;2.20;1.10;;;18.80;32.00;;;;;;8339883;28;20529;-51
2020/12/29 09:14:04;;;;;;;1.55;0.85;;;18.90;32.00;;;;;;8320630;28;20049;-53
2020/12/29 09:18:06;;;;;;;0.88;0.65;;;18.90;31.90;;;;;;8342625;28;20398;-51
2020/12/29 09:22:09;;;;;;;1.15;0.75;;;18.90;31.80;;;;;;8337405;28;20379;-50
2020/12/29 09:26:09;;;;;;;1.90;0.90;;;19.00;31.80;;;;;;8318753;28;20056;-50
2020/12/29 09:30:13;;;;;;;1.80;1.10;;;19.00;31.80;;;;;;8352970;28;20422;-54
2020/12/29 09:34:14;;;;;;;4.82;0.80;;;19.10;31.90;;;;;;8334322;28;20068;-53
2020/12/29 09:38:14;;;;;;;1.97;0.73;;;18.90;30.40;;;;;;8323550;28;20439;-52
2020/12/29 09:42:15;;;;;;;8.00;0.90;;;18.40;29.40;;;;;;8343197;28;20092;-52
2020/12/29 09:46:16;;;;;;;4.33;0.90;;;18.10;29.30;;;;;;8338398;28;20072;-51
2020/12/29 09:50:17;;;;;;;2.30;1.00;;;17.70;30.00;;;;;;8350634;28;20037;-51
2020/12/29 09:54:18;;;;;;;1.58;0.70;;;17.70;30.80;;;;;;8346962;28;20525;-51
2020/12/29 09:58:18;;;;;;;1.47;0.80;;;18.00;30.80;;;;;;8319428;28;20045;-54
2020/12/29 10:02:20;;;;;;;1.03;0.60;;;18.30;30.60;;;;;;8318284;28;20408;-52
2020/12/29 10:06:20;;;;;;;2.20;0.68;;;18.50;30.60;;;;;;8319781;28;20034;-53
2020/12/29 10:10:21;;;;;;;6.67;0.93;;;18.60;30.50;;;;;;8339238;28;20075;-52
2020/12/29 10:14:22;;;;;;;3.53;0.70;;;18.80;30.70;;;;;;8317391;28;20041;-54
2020/12/29 10:18:22;;;;;;;4.37;0.73;;;18.80;30.80;;;;;;8319106;28;20129;-54
2020/12/29 10:22:25;;;;;;;1.67;0.80;;;18.90;30.80;;;;;;8319088;28;20120;-54
2020/12/29 10:26:25;;;;;;;2.42;0.93;;;19.00;30.80;;;;;;8319554;28;20057;-53
2020/12/29 10:30:26;;;;;;;1.57;1.00;;;19.10;31.00;;;;;;8349183;28;20541;-52
2020/12/29 10:34:26;;;;;;;1.47;0.63;;;19.10;31.00;;;;;;8347964;28;20048;-53
2020/12/29 10:38:27;;;;;;;3.43;0.90;;;19.20;31.20;;;;;;8322494;28;20184;-55
2020/12/29 10:42:27;;;;;;;4.43;0.60;;;19.20;31.20;;;;;;8318849;28;20053;-54
2020/12/29 10:46:28;;;;;;;1.27;0.70;;;19.30;31.20;;;;;;8329794;28;20466;-51
2020/12/29 10:50:28;;;;;;;1.70;0.77;;;19.30;31.20;;;;;;8323660;28;20041;-53
2020/12/29 10:54:29;;;;;;;6.47;0.73;;;19.40;31.40;;;;;;8328205;28;20044;-51
2020/12/29 10:58:29;;;;;;;1.37;0.77;;;19.30;30.90;;;;;;8333253;28;20490;-50
2020/12/29 11:02:30;;;;;;;4.03;1.00;;;19.00;29.50;;;;;;8338319;28;20034;-49
2020/12/29 11:06:30;;;;;;;4.63;0.70;;;18.60;29.20;;;;;;8329139;28;20041;-51
2020/12/29 11:10:31;;;;;;;3.33;1.20;;;18.30;29.20;;;;;;8327894;28;20391;-55
2020/12/29 11:14:31;;;;;;;9.43;6.07;;;18.10;29.20;;;;;;8325661;28;20135;-55
2020/12/29 11:18:32;;;;;;;7.67;3.60;;;17.90;29.20;;;;;;8345585;28;20065;-53
2020/12/29 11:22:32;;;;;;;64.27;10.07;;;17.70;29.20;;;;;;8328282;28;20052;-55
2020/12/29 11:26:33;;;;;;;63.73;11.40;;;17.60;30.40;;;;;;8328941;28;20043;-54
2020/12/29 11:30:34;;;;;;;68.60;12.93;;;17.90;30.50;;;;;;8349414;28;20498;-51
2020/12/29 11:34:34;;;;;;;73.50;12.73;;;18.20;30.30;;;;;;8334856;28;20038;-52
2020/12/29 11:38:35;;;;;;;46.50;10.07;;;18.50;30.00;;;;;;8330069;28;20029;-48
2020/12/29 11:42:36;;;;;;;37.42;9.57;;;18.80;30.10;;;;;;8344302;28;20116;-52
2020/12/29 11:46:37;;;;;;;44.87;10.33;;;18.90;30.30;;;;;;8323496;28;20037;-49
2020/12/29 11:50:38;;;;;;;36.45;9.15;;;19.10;30.30;;;;;;8325556;28;20055;-49
2020/12/29 11:54:39;;;;;;;42.97;10.33;;;19.20;30.50;;;;;;8355097;28;20402;-52
2020/12/29 11:58:39;;;;;;;33.13;8.88;;;19.30;30.30;;;;;;8360455;28;20457;-48
2020/12/29 12:02:40;;;;;;;38.33;8.20;;;19.30;30.40;;;;;;8354214;28;20046;-48
2020/12/29 12:06:41;;;;;;;36.37;9.13;;;19.30;30.40;;;;;;8342629;28;20034;-48
2020/12/29 12:10:41;;;;;;;32.72;8.13;;;19.40;30.40;;;;;;8343988;28;20049;-49
2020/12/29 12:14:42;;;;;;;28.73;7.70;;;19.50;30.40;;;;;;8333450;28;20505;-54
2020/12/29 12:18:42;;;;;;;23.73;6.70;;;19.50;30.40;;;;;;8355457;28;20037;-53
2020/12/29 12:22:44;;;;;;;23.13;7.07;;;19.50;30.30;;;;;;8354927;28;20053;-52
2020/12/29 12:26:44;;;;;;;25.90;6.68;;;19.60;30.20;;;;;;8353036;28;20045;-56
2020/12/29 12:30:45;;;;;;;26.80;7.50;;;19.60;30.20;;;;;;8357362;28;20044;-55
2020/12/29 12:34:45;;;;;;;27.33;6.37;;;19.70;30.30;;;;;;8357403;28;20424;-54
2020/12/29 12:38:46;;;;;;;28.43;7.77;;;19.80;30.40;;;;;;8347976;28;20041;-53
2020/12/29 12:42:47;;;;;;;17.87;6.37;;;19.70;30.20;;;;;;8321614;28;20036;-55
2020/12/29 12:46:47;;;;;;;23.17;7.60;;;19.80;30.30;;;;;;8343565;28;20455;-56
2020/12/29 12:50:48;;;;;;;19.10;5.10;;;19.80;30.30;;;;;;8357283;28;20056;-53
2020/12/29 12:54:48;;;;;;;11.67;5.27;;;19.80;30.30;;;;;;8340511;28;20045;-53
2020/12/29 12:58:49;;;;;;;18.27;5.80;;;19.90;30.50;;;;;;8343502;28;20060;-52
2020/12/29 13:02:49;;;;;;;18.67;6.60;;;19.80;30.60;;;;;;8322433;28;20048;-47
2020/12/29 13:06:51;;;;;;;6.47;2.00;;;19.80;30.10;;;;;;8324971;28;20111;-51
2020/12/29 13:10:52;;;;;;;12.10;4.45;;;19.30;28.20;;;;;;8343455;28;20450;-54
2020/12/29 13:14:52;;;;;;;19.73;4.13;;;19.00;29.90;;;;;;8321668;28;20044;-52
2020/12/29 13:18:53;;;;;;;11.70;3.70;;;19.10;29.80;;;;;;8320837;28;20030;-52
2020/12/29 13:22:54;;;;;;;9.65;2.85;;;19.30;29.80;;;;;;8320475;28;20053;-56
2020/12/29 13:26:55;;;;;;;8.20;3.10;;;19.50;29.90;;;;;;8322975;28;20045;-52
2020/12/29 13:30:55;;;;;;;27.93;6.67;;;19.60;29.80;;;;;;8319824;28;20136;-49
2020/12/29 13:34:56;;;;;;;11.07;2.90;;;19.60;29.90;;;;;;8320142;28;20041;-47
2020/12/29 13:38:56;;;;;;;4.17;1.37;;;19.30;28.30;;;;;;8318277;28;20061;-52
2020/12/29 13:42:57;;;;;;;7.73;2.23;;;18.80;27.90;;;;;;8324190;28;20475;-52
2020/12/29 13:46:57;;;;;;;9.37;2.30;;;18.40;29.20;;;;;;8333663;28;20091;-53
2020/12/29 13:50:59;;;;;;;3.43;1.83;;;18.50;30.00;;;;;;8316420;28;20057;-51
2020/12/29 13:55:00;;;;;;;6.13;2.13;;;18.70;29.80;;;;;;8321957;28;20043;-49
2020/12/29 13:59:00;;;;;;;5.23;2.10;;;19.00;29.60;;;;;;8343774;28;20041;-49
2020/12/29 14:03:01;;;;;;;11.70;2.40;;;19.20;29.70;;;;;;8325113;28;20045;-54
2020/12/29 14:07:01;;;;;;;8.57;1.77;;;19.30;29.60;;;;;;8336594;28;20025;-49
2020/12/29 14:11:02;;;;;;;8.07;1.90;;;19.40;29.80;;;;;;8352078;28;20132;-49
2020/12/29 14:15:03;;;;;;;4.63;1.30;;;19.50;29.90;;;;;;8317879;28;20068;-50
2020/12/29 14:19:03;;;;;;;7.10;1.70;;;19.60;29.90;;;;;;8339062;28;20037;-53
2020/12/29 14:23:03;;;;;;;5.27;1.60;;;19.70;29.90;;;;;;8351586;28;20095;-55
2020/12/29 14:27:04;;;;;;;4.33;1.20;;;19.80;30.10;;;;;;8350574;28;20060;-54
2020/12/29 14:31:04;;;;;;;4.93;1.60;;;19.80;30.00;;;;;;8351408;28;20049;-48
2020/12/29 14:35:05;;;;;;;1.97;1.37;;;19.80;30.20;;;;;;8352416;28;20132;-52
2020/12/29 14:39:06;;;;;;;4.27;1.40;;;19.90;30.20;;;;;;8317155;28;20069;-53
2020/12/29 14:43:07;;;;;;;3.45;1.50;;;19.90;30.20;;;;;;8318733;28;20042;-53
2020/12/29 14:47:07;;;;;;;4.63;1.50;;;20.00;30.40;;;;;;8318077;28;20048;-53
2020/12/29 14:51:08;;;;;;;4.80;1.50;;;20.00;30.40;;;;;;8326517;28;20054;-53
2020/12/29 14:55:09;;;;;;;4.03;1.60;;;20.00;30.60;;;;;;8318492;28;20072;-55
2020/12/29 14:59:10;;;;;;;7.97;1.58;;;20.10;30.80;;;;;;8316917;28;20068;-47
2020/12/29 15:03:10;;;;;;;6.27;2.73;;;20.10;30.50;;;;;;8323613;28;20053;-55
2020/12/29 15:07:11;;;;;;;6.67;2.70;;;19.80;30.60;;;;;;8328683;28;20148;-53
2020/12/29 15:11:11;;;;;;;3.97;3.23;;;19.70;30.90;;;;;;8346516;28;20049;-54
2020/12/29 15:15:12;;;;;;;4.00;2.70;;;19.70;30.90;;;;;;8326848;28;20041;-54
2020/12/29 15:19:13;;;;;;;6.17;3.00;;;19.80;31.00;;;;;;8333666;28;20033;-55
2020/12/29 15:23:13;;;;;;;5.87;3.20;;;19.80;31.30;;;;;;8317213;28;20041;-53
2020/12/29 15:27:14;;;;;;;5.23;2.90;;;19.80;31.10;;;;;;8355196;28;20060;-56
2020/12/29 15:31:14;;;;;;;5.03;2.83;;;19.80;31.10;;;;;;8355106;28;20521;-56
2020/12/29 15:35:15;;;;;;;3.60;2.57;;;19.80;31.20;;;;;;8355545;28;20033;-56
2020/12/29 15:39:15;;;;;;;5.30;3.07;;;19.80;31.30;;;;;;8360004;28;20036;-57
2020/12/29 15:43:18;;;;;;;4.63;2.40;;;19.80;31.30;;;;;;8357379;28;20033;-56
2020/12/29 15:47:18;;;;;;;3.00;2.58;;;19.90;31.40;;;;;;8357726;28;20382;-57
2020/12/29 15:51:21;;;;;;;3.80;2.53;;;19.90;31.90;;;;;;8332068;28;20628;-55
2020/12/29 15:55:22;;;;;;;4.53;2.38;;;20.00;31.40;;;;;;8323104;28;20048;-56
2020/12/29 15:59:22;;;;;;;5.60;2.10;;;20.00;31.70;;;;;;8331889;28;20047;-55
2020/12/29 16:03:23;;;;;;;4.33;3.70;;;20.00;31.60;;;;;;8327834;28;20041;-53
2020/12/29 16:07:23;;;;;;;6.07;3.70;;;19.80;30.00;;;;;;8341484;28;20406;-56
2020/12/29 16:11:24;;;;;;;5.03;3.67;;;19.30;31.10;;;;;;8353686;28;20510;-55
2020/12/29 16:15:24;;;;;;;4.57;3.80;;;19.20;31.40;;;;;;8345790;28;20030;-58
2020/12/29 16:19:25;;;;;;;9.57;4.07;;;19.40;31.30;;;;;;8326683;28;20041;-57
2020/12/29 16:23:25;;;;;;;6.90;3.80;;;19.50;31.20;;;;;;8320455;28;20144;-52
2020/12/29 16:27:26;;;;;;;4.17;3.70;;;19.60;31.30;;;;;;8324935;28;20042;-54
2020/12/29 16:31:38;;;;;;;5.38;4.07;;;19.80;31.20;;;;;;8325967;28;20042;-55
2020/12/29 16:35:39;;;;;;;;;;;19.80;31.20;;;;;;8320570;28;20033;-52
2020/12/29 16:39:39;;;;;;;5.30;3.57;;;19.90;31.20;;;;;;8326251;28;19917;-52
2020/12/29 16:43:40;;;;;;;3.90;3.10;;;19.90;31.30;;;;;;8342300;28;20402;-53
2020/12/29 16:47:40;;;;;;;6.27;3.47;;;20.00;31.30;;;;;;8350263;28;20037;-53
2020/12/29 16:51:41;;;;;;;4.53;3.00;;;20.00;31.30;;;;;;8332938;28;20144;-49
2020/12/29 16:55:42;;;;;;;4.43;2.87;;;20.00;31.40;;;;;;8325782;28;20041;-55
2020/12/29 16:59:43;;;;;;;4.53;2.80;;;20.00;31.40;;;;;;8319695;28;20128;-53
2020/12/29 17:03:47;;;;;;;3.70;2.93;;;20.10;31.60;;;;;;8321063;28;20042;-52
2020/12/29 17:07:49;;;;;;;4.78;1.70;;;20.10;31.50;;;;;;8342624;28;20093;-51
2020/12/29 17:11:50;;;;;;;14.85;7.07;;;19.80;29.70;;;;;;8327110;28;20045;-51
2020/12/29 17:15:50;;;;;;;16.70;9.70;;;19.00;29.70;;;;;;8354536;28;20045;-52
2020/12/29 17:19:51;;;;;;;16.30;9.87;;;18.70;31.40;;;;;;8346610;28;20083;-54
2020/12/29 17:23:52;;;;;;;15.53;11.00;;;18.80;31.60;;;;;;8321054;28;20052;-54
2020/12/29 17:27:53;;;;;;;17.15;10.18;;;19.00;31.40;;;;;;8320079;28;20038;-52
2020/12/29 17:31:55;;;;;;;17.53;10.63;;;19.30;31.20;;;;;;8324529;28;20395;-55
2020/12/29 17:35:56;;;;;;;13.90;9.75;;;19.50;31.10;;;;;;8324445;28;20037;-54
2020/12/29 17:39:57;;;;;;;15.38;9.90;;;19.60;31.00;;;;;;8349038;28;20136;-55
2020/12/29 17:43:57;;;;;;;15.57;9.27;;;19.70;31.00;;;;;;8333414;28;20506;-54
2020/12/29 17:47:59;;;;;;;12.77;8.90;;;19.80;31.10;;;;;;8329489;28;20086;-51
2020/12/29 17:52:00;;;;;;;14.70;8.88;;;19.90;31.10;;;;;;8337799;28;20047;-52
2020/12/29 17:56:00;;;;;;;12.13;7.97;;;19.90;31.10;;;;;;8342981;28;20468;-52
2020/12/29 18:00:01;;;;;;;12.37;8.07;;;20.00;31.10;;;;;;8370919;28;20029;-53
2020/12/29 18:04:02;;;;;;;11.67;7.17;;;20.00;31.30;;;;;;8349031;28;20176;-48
2020/12/29 18:08:03;;;;;;;9.20;5.18;;;19.90;30.30;;;;;;8323590;28;20170;-49
2020/12/29 18:12:05;;;;;;;11.63;6.85;;;19.20;29.50;;;;;;8329730;28;20082;-51
2020/12/29 18:16:05;;;;;;;8.85;6.00;;;18.70;31.20;;;;;;8335454;28;20052;-56
2020/12/29 18:20:06;;;;;;;10.77;5.67;;;18.80;31.70;;;;;;8338957;28;20053;-54
2020/12/29 18:24:07;;;;;;;12.65;6.10;;;19.00;31.60;;;;;;8343904;28;20037;-52
2020/12/29 18:28:07;;;;;;;10.10;5.57;;;19.10;31.30;;;;;;8319850;28;20095;-53
2020/12/29 18:32:08;;;;;;;15.50;5.40;;;19.30;31.30;;;;;;8317366;28;20041;-54
2020/12/29 18:36:08;;;;;;;8.83;5.43;;;19.40;31.10;;;;;;8361797;28;20033;-51
2020/12/29 18:40:09;;;;;;;14.97;5.30;;;19.50;31.00;;;;;;8335181;28;20059;-56
2020/12/29 18:44:10;;;;;;;11.27;5.13;;;19.60;31.60;;;;;;8321012;28;20132;-54
2020/12/29 18:48:10;;;;;;;7.80;4.87;;;19.70;31.10;;;;;;8318572;28;20045;-54
2020/12/29 18:52:11;;;;;;;11.23;4.90;;;19.80;30.90;;;;;;8330113;28;20029;-56
2020/12/29 18:56:19;;;;;;;11.75;5.05;;;19.80;30.80;;;;;;8310070;28;20168;-52
2020/12/29 19:00:19;;;;;;;9.18;5.22;;;19.90;31.40;;;;;;8355844;28;20475;-53
2020/12/29 19:04:20;;;;;;;9.63;4.63;;;19.90;30.80;;;;;;8353209;28;20048;-53
2020/12/29 19:08:20;;;;;;;8.33;4.57;;;20.00;30.80;;;;;;8355880;28;20082;-55
2020/12/29 19:12:21;;;;;;;8.83;4.77;;;20.00;30.70;;;;;;8357237;28;20029;-55
2020/12/29 19:16:23;;;;;;;7.43;4.80;;;20.10;30.70;;;;;;8361803;28;20033;-55
2020/12/29 19:20:23;;;;;;;6.43;3.88;;;20.00;30.60;;;;;;8328557;28;20040;-55
2020/12/29 19:24:24;;;;;;;7.13;4.43;;;20.10;30.60;;;;;;8335288;28;20450;-56
2020/12/29 19:28:24;;;;;;;6.43;4.10;;;20.10;30.60;;;;;;8357167;28;20041;-56
2020/12/29 19:32:29;;;;;;;6.23;4.00;;;20.20;30.60;;;;;;8352922;28;20365;-55
2020/12/29 19:36:30;;;;;;;6.55;4.03;;;20.20;30.60;;;;;;8328296;28;20091;-55
2020/12/29 19:40:30;;;;;;;7.17;4.00;;;20.20;30.60;;;;;;8324042;28;20255;-56
2020/12/29 19:44:31;;;;;;;7.50;3.90;;;20.20;30.50;;;;;;8321846;28;20037;-57
2020/12/29 19:48:31;;;;;;;8.63;3.90;;;20.20;30.50;;;;;;8349966;28;20163;-50
2020/12/29 19:52:32;;;;;;;11.10;5.13;;;20.20;30.50;;;;;;8366819;28;20363;-51
2020/12/29 19:56:32;;;;;;;5.60;3.40;;;20.10;30.70;;;;;;8333040;28;20037;-51
2020/12/29 20:00:34;;;;;;;8.90;4.53;;;20.10;30.60;;;;;;8361613;28;20067;-49
2020/12/29 20:04:34;;;;;;;5.35;3.78;;;20.10;30.50;;;;;;8362155;28;20029;-50
2020/12/29 20:08:35;;;;;;;6.43;3.50;;;20.10;30.40;;;;;;8356412;28;20164;-53
2020/12/29 20:12:36;;;;;;;5.27;3.50;;;20.10;30.40;;;;;;8333163;28;20049;-53
2020/12/29 20:16:37;;;;;;;4.78;2.95;;;20.00;30.30;;;;;;8327947;28;20040;-53
2020/12/29 20:20:38;;;;;;;6.17;3.73;;;20.00;30.40;;;;;;8330667;28;20423;-51
2020/12/29 20:24:40;;;;;;;5.43;3.35;;;19.90;30.30;;;;;;8361162;28;20112;-50
2020/12/29 20:28:41;;;;;;;4.65;3.22;;;19.90;30.30;;;;;;8365644;28;20066;-53
2020/12/29 20:32:41;;;;;;;3.80;3.00;;;19.80;30.30;;;;;;8330327;28;20124;-53
2020/12/29 20:36:42;;;;;;;5.20;3.20;;;19.80;30.30;;;;;;8327951;28;20041;-50
2020/12/29 20:40:42;;;;;;;5.67;3.40;;;19.80;30.40;;;;;;8327946;28;20029;-52
2020/12/29 20:44:43;;;;;;;4.73;2.97;;;19.70;30.30;;;;;;8330658;28;20076;-50
2020/12/29 20:48:44;;;;;;;4.47;3.33;;;19.70;30.30;;;;;;8327789;28;20053;-50
2020/12/29 20:52:47;;;;;;;4.28;3.22;;;19.70;30.30;;;;;;8327735;28;20057;-53